Time;durP1;ratioP1;P1;durP2;ratioP2;P2;SDS_P1;SDS_P2;PMS_P1;PMS_P2;Temp;Humidity;BMP_temperature;BMP_pressure;BME280_temperature;BME280_humidity;BME280_pressure;Samples;Min_cycle;Max_cycle;Signal;HPM_P1;HPM_P2
2023/02/13 05:07:12;;;;;;;17.50;7.45;;;14.20;61.30;;;;;;5204173;24;20728;-76
2023/02/13 05:09:38;;;;;;;13.85;6.47;;;14.30;61.20;;;;;;4824552;29;20125;-76
2023/02/13 05:12:03;;;;;;;13.77;6.47;;;14.30;61.30;;;;;;4809500;29;20115;-74
2023/02/13 06:54:29;;;;;;;16.90;10.48;;;16.00;56.30;;;;;;4787879;29;20144;-75
2023/02/13 06:56:54;;;;;;;14.23;9.18;;;16.00;57.20;;;;;;4761277;30;20460;-74
2023/02/13 06:59:20;;;;;;;14.85;10.00;;;16.10;57.60;;;;;;4775009;30;20080;-75
2023/02/13 07:01:46;;;;;;;17.88;11.45;;;16.20;57.70;;;;;;4791220;30;20043;-73
2023/02/13 07:04:11;;;;;;;17.45;11.55;;;16.20;56.80;;;;;;4790605;29;20079;-74
2023/02/13 07:06:37;;;;;;;22.27;11.23;;;16.20;56.30;;;;;;4790798;30;20410;-76
2023/02/13 07:09:03;;;;;;;13.25;9.57;;;16.20;56.70;;;;;;4791235;30;20523;-77
2023/02/13 07:11:29;;;;;;;13.40;8.90;;;16.10;56.80;;;;;;4791723;30;20128;-77
2023/02/13 07:13:55;;;;;;;13.32;8.27;;;16.20;57.10;;;;;;4775245;30;20051;-77
2023/02/13 07:16:21;;;;;;;13.25;8.23;;;16.20;57.20;;;;;;4791168;29;20063;-74
2023/02/13 07:18:47;;;;;;;11.00;6.97;;;16.30;57.40;;;;;;4792460;29;20043;-77
2023/02/13 07:21:13;;;;;;;10.55;7.57;;;16.30;57.60;;;;;;4788589;30;20043;-74
2023/02/13 07:23:39;;;;;;;12.45;7.57;;;16.40;57.90;;;;;;4774978;30;20062;-77
2023/02/13 07:26:05;;;;;;;14.30;8.05;;;16.40;57.90;;;;;;4789761;30;20067;-76
2023/02/13 07:28:31;;;;;;;13.48;8.13;;;16.40;57.70;;;;;;4780756;30;20446;-73
2023/02/13 07:31:03;;;;;;;10.73;7.63;;;16.30;57.70;;;;;;4805945;29;20078;-76
2023/02/13 07:33:29;;;;;;;10.93;6.78;;;16.30;58.00;;;;;;4803338;29;20083;-77
2023/02/13 07:35:55;;;;;;;11.20;7.65;;;16.30;58.40;;;;;;4790946;30;20111;-74
2023/02/13 07:38:21;;;;;;;10.63;7.55;;;16.20;58.50;;;;;;4787824;30;20471;-76
2023/02/13 07:40:47;;;;;;;12.95;8.07;;;16.20;58.80;;;;;;4756968;30;20059;-76
2023/02/13 07:43:13;;;;;;;11.52;7.55;;;16.10;58.90;;;;;;4778029;30;20141;-74
2023/02/13 07:45:39;;;;;;;13.02;6.88;;;16.10;59.00;;;;;;4802882;29;20082;-75
2023/02/13 07:48:05;;;;;;;12.18;7.18;;;16.10;59.20;;;;;;4807600;29;20042;-75
2023/02/13 07:50:31;;;;;;;12.32;7.90;;;16.00;59.40;;;;;;4790570;30;20145;-75
2023/02/13 07:53:01;;;;;;;12.55;6.72;;;16.00;59.60;;;;;;4770328;30;20156;-76
2023/02/13 07:55:28;;;;;;;12.98;7.30;;;15.90;59.80;;;;;;4757912;30;20133;-75
2023/02/13 07:57:54;;;;;;;10.48;6.45;;;15.90;60.20;;;;;;4775550;30;20391;-76
2023/02/13 08:00:20;;;;;;;11.90;7.30;;;15.80;60.30;;;;;;4758399;30;20055;-73
2023/02/13 08:02:47;;;;;;;7.70;5.88;;;15.80;60.60;;;;;;4768774;29;20138;-74
2023/02/13 08:05:13;;;;;;;8.85;6.13;;;15.70;60.70;;;;;;4776473;29;20055;-77
2023/02/13 08:07:39;;;;;;;11.80;7.18;;;15.70;61.00;;;;;;4764158;30;20058;-74
2023/02/13 08:12:54;;;;;;;9.60;5.80;;;15.70;61.50;;;;;;4772307;30;20056;-73
2023/02/13 08:15:20;;;;;;;13.13;6.38;;;15.60;61.60;;;;;;4767919;30;20459;-75
2023/02/13 08:17:46;;;;;;;9.65;6.28;;;15.60;61.60;;;;;;4786983;30;20058;-75
2023/02/13 08:20:11;;;;;;;8.80;5.65;;;15.50;61.80;;;;;;4789013;30;20051;-76
2023/02/13 08:22:38;;;;;;;8.05;5.38;;;15.50;62.00;;;;;;4776323;30;20474;-74
2023/02/13 08:25:07;;;;;;;9.40;5.60;;;15.50;62.10;;;;;;4785649;30;20051;-75
2023/02/13 08:27:32;;;;;;;9.63;6.15;;;15.40;62.10;;;;;;4764740;30;20055;-75
2023/02/13 08:29:58;;;;;;;10.25;5.85;;;15.40;62.10;;;;;;4776667;30;20052;-74
2023/02/13 08:32:25;;;;;;;7.70;5.38;;;15.40;62.30;;;;;;4784603;30;20108;-75
2023/02/13 08:34:51;;;;;;;8.88;4.90;;;15.40;62.50;;;;;;4773457;30;20055;-76
2023/02/13 08:37:17;;;;;;;10.05;5.43;;;15.40;62.50;;;;;;4759310;30;20131;-76
2023/02/13 08:39:43;;;;;;;8.50;5.00;;;15.30;62.50;;;;;;4783854;29;20047;-76
2023/02/13 08:42:09;;;;;;;10.27;5.55;;;15.30;62.60;;;;;;4788290;30;20055;-74
2023/02/13 08:44:36;;;;;;;9.13;4.88;;;15.20;62.60;;;;;;4777390;30;20052;-74
2023/02/13 08:47:02;;;;;;;10.40;5.38;;;15.20;62.70;;;;;;4781775;30;20482;-75
2023/02/13 08:49:31;;;;;;;8.50;4.85;;;15.20;62.80;;;;;;4771556;30;20070;-73
2023/02/13 08:51:57;;;;;;;14.35;5.45;;;15.20;62.90;;;;;;4762490;30;20420;-75
2023/02/13 08:54:23;;;;;;;8.55;4.90;;;15.20;63.00;;;;;;4772099;30;20086;-75
2023/02/13 08:56:48;;;;;;;7.75;5.47;;;15.10;63.00;;;;;;4786678;30;20055;-77
2023/02/13 08:59:14;;;;;;;8.57;5.10;;;15.10;63.10;;;;;;4787454;30;20134;-76
2023/02/13 09:01:40;;;;;;;8.25;5.55;;;15.00;63.20;;;;;;4784709;30;20061;-74
2023/02/13 09:04:06;;;;;;;6.53;4.82;;;15.10;63.30;;;;;;4785768;30;20059;-75
2023/02/13 09:06:31;;;;;;;9.52;5.05;;;15.10;63.40;;;;;;4774704;30;20083;-74
2023/02/13 09:08:57;;;;;;;7.63;5.00;;;15.00;63.50;;;;;;4789789;30;20067;-75
2023/02/13 09:11:23;;;;;;;8.60;4.93;;;15.00;63.60;;;;;;4781631;30;20064;-74
2023/02/13 09:13:52;;;;;;;7.28;5.40;;;15.00;63.60;;;;;;4771478;30;20132;-76
2023/02/13 09:16:18;;;;;;;12.63;9.35;;;15.00;63.70;;;;;;4788859;29;20491;-73
2023/02/13 09:18:47;;;;;;;18.23;13.80;;;15.00;63.30;;;;;;4791813;30;20122;-76
2023/02/13 09:21:13;;;;;;;24.98;15.35;;;15.00;61.40;;;;;;4793075;30;20078;-76
2023/02/13 09:23:40;;;;;;;18.65;12.95;;;15.00;59.60;;;;;;4791448;30;20044;-75
2023/02/13 09:26:08;;;;;;;16.00;12.82;;;14.90;59.20;;;;;;4799025;29;20056;-75
2023/02/13 09:28:35;;;;;;;16.20;12.23;;;14.90;59.50;;;;;;4775874;30;20055;-76
2023/02/13 09:31:08;;;;;;;16.35;10.82;;;14.90;59.50;;;;;;4791070;30;20339;-75
2023/02/13 09:33:35;;;;;;;15.98;10.75;;;15.00;59.60;;;;;;4792860;30;20138;-74
2023/02/13 09:36:10;;;;;;;19.02;10.45;;;15.10;59.70;;;;;;4773653;30;20453;-75
2023/02/13 09:38:35;;;;;;;12.95;10.60;;;15.20;59.90;;;;;;4774973;30;20206;-73
2023/02/13 09:41:33;;;;;;;13.65;8.55;;;15.20;60.10;;;;;;4759238;30;20090;-73
2023/02/13 09:44:03;;;;;;;15.40;8.32;;;15.40;60.30;;;;;;4790371;29;20439;-76
2023/02/13 09:46:33;;;;;;;12.82;8.85;;;15.40;60.30;;;;;;4777082;30;20519;-76
2023/02/13 09:49:06;;;;;;;13.35;8.07;;;15.40;60.30;;;;;;4792912;29;20127;-76
2023/02/13 09:51:32;;;;;;;13.13;7.70;;;15.40;60.50;;;;;;4776038;30;20059;-74
2023/02/13 09:54:04;;;;;;;13.85;8.27;;;15.50;60.80;;;;;;4791896;30;20128;-74
2023/02/13 09:56:59;;;;;;;10.23;7.85;;;15.50;61.10;;;;;;4789106;30;20043;-74
2023/02/13 09:59:43;;;;;;;12.50;7.20;;;15.50;61.30;;;;;;4792516;30;20444;-73
2023/02/13 10:02:54;;;;;;;12.70;6.68;;;15.50;61.30;;;;;;4775015;30;20064;-73
2023/02/13 10:05:41;;;;;;;14.05;6.60;;;15.60;61.50;;;;;;4785451;30;20113;-73
2023/02/13 10:08:25;;;;;;;18.77;6.88;;;15.60;61.50;;;;;;4774353;30;20439;-73
2023/02/13 10:11:01;;;;;;;14.13;5.90;;;15.70;61.70;;;;;;4787015;30;20066;-73
2023/02/13 10:14:14;;;;;;;11.77;5.53;;;15.80;61.50;;;;;;4764372;30;20111;-73
2023/02/13 10:16:51;;;;;;;12.18;5.18;;;15.90;61.60;;;;;;4785278;30;20070;-75
2023/02/13 10:19:29;;;;;;;13.52;5.30;;;16.00;61.50;;;;;;4791673;30;20510;-73
2023/02/13 10:22:24;;;;;;;10.82;4.88;;;16.10;61.40;;;;;;4791874;30;20121;-74
2023/02/13 10:24:55;;;;;;;8.88;4.78;;;16.20;61.40;;;;;;4780206;30;20074;-74
2023/02/13 10:27:45;;;;;;;10.20;4.55;;;16.20;61.40;;;;;;4775576;30;20413;-74
2023/02/13 10:30:17;;;;;;;9.00;4.95;;;16.20;61.40;;;;;;4774980;30;20114;-72
2023/02/13 10:33:41;;;;;;;12.98;4.28;;;16.30;61.40;;;;;;4774226;30;20388;-73
2023/02/13 10:35:46;;;;;;;11.85;4.47;;;16.40;61.40;;;;;;4769343;30;20061;-75
2023/02/13 10:38:19;;;;;;;11.30;4.13;;;16.40;61.20;;;;;;4791107;30;20063;-74
2023/02/13 10:41:10;;;;;;;7.50;4.40;;;16.50;61.20;;;;;;4774542;30;20054;-75
2023/02/13 10:44:00;;;;;;;9.02;3.85;;;16.50;61.10;;;;;;4791286;30;20047;-74
2023/02/13 10:46:44;;;;;;;12.57;3.92;;;16.50;61.60;;;;;;4791516;30;20058;-77
2023/02/13 10:49:27;;;;;;;11.38;4.03;;;16.50;61.40;;;;;;4772451;30;20079;-74
2023/02/13 10:52:21;;;;;;;11.32;3.42;;;16.50;61.30;;;;;;4787172;30;20492;-74
2023/02/13 10:54:59;;;;;;;8.07;3.78;;;16.50;61.30;;;;;;4775647;30;20055;-75
2023/02/13 10:58:00;;;;;;;10.13;4.20;;;16.50;61.40;;;;;;4775059;30;20051;-74
2023/02/13 11:00:32;;;;;;;11.73;3.85;;;16.50;61.50;;;;;;4780296;30;20059;-73
2023/02/13 11:02:59;;;;;;;12.60;4.00;;;16.10;59.30;;;;;;4785273;30;20047;-77
2023/02/13 11:05:35;;;;;;;8.48;3.42;;;16.10;61.80;;;;;;4791893;30;20058;-76
2023/02/13 11:08:02;;;;;;;9.32;4.10;;;16.10;62.00;;;;;;4781287;30;20054;-75
2023/02/13 11:10:27;;;;;;;10.18;3.88;;;16.20;61.80;;;;;;4789798;30;20078;-75
2023/02/13 11:12:54;;;;;;;15.00;4.43;;;16.20;61.70;;;;;;4772812;30;20060;-73
2023/02/13 11:15:30;;;;;;;9.65;3.78;;;16.30;61.60;;;;;;4758084;30;20412;-76
2023/02/13 11:18:02;;;;;;;9.80;3.45;;;16.30;61.60;;;;;;4779634;30;20049;-76
2023/02/13 11:20:43;;;;;;;8.68;4.35;;;16.30;61.60;;;;;;4791024;30;20347;-74
2023/02/13 11:23:29;;;;;;;8.23;3.15;;;16.40;61.60;;;;;;4780843;30;20083;-75
2023/02/13 11:26:00;;;;;;;9.70;4.10;;;16.40;61.50;;;;;;4773084;30;20063;-73
2023/02/13 11:28:29;;;;;;;11.23;4.32;;;16.40;61.50;;;;;;4775720;30;20367;-75
2023/02/13 11:31:21;;;;;;;13.27;6.35;;;16.50;61.50;;;;;;4782528;30;20363;-75
2023/02/13 11:33:47;;;;;;;14.10;9.98;;;16.40;60.60;;;;;;4756848;30;20059;-73
2023/02/13 11:36:31;;;;;;;12.40;9.75;;;16.40;60.00;;;;;;4772867;30;20059;-75
2023/02/13 11:39:04;;;;;;;15.43;11.60;;;16.30;59.00;;;;;;4785271;29;20467;-75
2023/02/13 11:41:38;;;;;;;20.48;10.68;;;16.20;57.70;;;;;;4789419;30;20077;-73
2023/02/13 11:44:04;;;;;;;21.88;10.48;;;16.20;57.30;;;;;;4780401;30;20222;-74
2023/02/13 11:46:44;;;;;;;11.82;9.02;;;16.20;57.00;;;;;;4772508;30;20138;-73
2023/02/13 11:49:21;;;;;;;15.75;9.15;;;16.20;56.90;;;;;;4758165;30;20138;-73
2023/02/13 11:51:49;;;;;;;13.40;8.93;;;16.20;57.30;;;;;;4783258;30;20054;-74
2023/02/13 11:54:41;;;;;;;16.85;9.18;;;16.20;57.70;;;;;;4787603;30;20214;-74
2023/02/13 11:57:33;;;;;;;11.07;7.88;;;16.20;57.90;;;;;;4786602;29;20051;-74
2023/02/13 12:00:18;;;;;;;15.57;8.10;;;16.10;58.90;;;;;;4792472;29;20447;-76
2023/02/13 12:02:51;;;;;;;12.73;7.05;;;16.20;58.90;;;;;;4794547;29;20455;-74
2023/02/13 12:05:20;;;;;;;13.25;6.40;;;16.20;62.30;;;;;;4790218;30;20071;-73
2023/02/13 12:07:47;;;;;;;10.43;6.32;;;16.20;60.30;;;;;;4774971;30;20065;-75
2023/02/13 12:10:22;;;;;;;13.05;6.38;;;16.20;60.10;;;;;;4772825;30;20059;-74
2023/02/13 12:12:56;;;;;;;13.25;6.30;;;16.20;60.20;;;;;;4777291;30;20051;-77
2023/02/13 12:15:26;;;;;;;12.57;5.50;;;16.20;60.30;;;;;;4777601;30;20073;-75
2023/02/13 12:18:10;;;;;;;11.25;6.00;;;16.20;60.50;;;;;;4790187;30;20329;-77
2023/02/13 12:20:47;;;;;;;15.75;6.13;;;16.20;60.60;;;;;;4789971;30;20048;-74
2023/02/13 12:23:26;;;;;;;10.70;6.15;;;16.20;60.70;;;;;;4772585;30;20055;-76
2023/02/13 12:26:25;;;;;;;13.00;6.78;;;16.20;60.90;;;;;;4789663;30;20479;-78
2023/02/13 12:29:00;;;;;;;10.55;5.15;;;16.20;61.30;;;;;;4762798;30;20147;-76
2023/02/13 12:31:32;;;;;;;13.68;5.70;;;16.20;61.40;;;;;;4771171;30;20051;-74
2023/02/13 12:34:23;;;;;;;14.65;6.38;;;16.20;61.70;;;;;;4772482;30;20087;-75
2023/02/13 12:37:13;;;;;;;9.98;5.35;;;16.10;61.90;;;;;;4773109;30;20063;-77
2023/02/13 12:40:00;;;;;;;16.52;5.93;;;16.10;62.00;;;;;;4772216;30;20063;-75
2023/02/13 12:42:54;;;;;;;15.27;5.88;;;16.10;62.20;;;;;;4774351;30;20066;-77
2023/02/13 12:45:41;;;;;;;11.93;5.57;;;16.00;62.20;;;;;;4757161;30;20160;-76
2023/02/13 12:48:07;;;;;;;15.48;5.35;;;16.00;62.00;;;;;;4760208;30;20109;-74
2023/02/13 12:50:58;;;;;;;19.85;15.23;;;15.80;62.50;;;;;;4774556;30;20367;-74
2023/02/13 12:53:35;;;;;;;23.02;14.30;;;15.80;58.30;;;;;;4786312;30;20383;-77
2023/02/13 12:56:32;;;;;;;19.60;10.93;;;15.60;59.70;;;;;;4771696;30;20456;-76
2023/02/13 12:59:07;;;;;;;13.77;9.00;;;15.30;62.10;;;;;;4775831;30;20470;-74
2023/02/13 13:01:52;;;;;;;16.23;9.43;;;15.10;62.80;;;;;;4789148;30;20066;-76
2023/02/13 13:04:39;;;;;;;16.13;9.38;;;15.00;63.30;;;;;;4793834;30;20054;-75
2023/02/13 13:07:14;;;;;;;11.55;8.50;;;14.90;63.80;;;;;;4785210;29;20061;-76
2023/02/13 13:09:58;;;;;;;12.55;8.77;;;14.90;64.60;;;;;;4803896;29;20059;-78
2023/02/13 13:12:54;;;;;;;15.20;9.18;;;14.90;64.90;;;;;;4789103;30;20051;-77
2023/02/13 13:15:34;;;;;;;10.20;7.90;;;14.90;64.90;;;;;;4793360;30;20082;-79
2023/02/13 13:18:06;;;;;;;14.70;8.30;;;14.80;65.10;;;;;;4793274;30;20445;-78
2023/02/13 13:20:52;;;;;;;13.57;8.43;;;14.80;65.00;;;;;;4792789;30;20043;-77
2023/02/13 13:23:33;;;;;;;10.60;7.85;;;14.70;65.00;;;;;;4777356;30;20047;-76
2023/02/13 13:26:05;;;;;;;12.90;8.38;;;14.70;65.50;;;;;;4792851;29;20094;-76
2023/02/13 13:28:43;;;;;;;10.70;7.80;;;14.70;66.20;;;;;;4792688;29;20463;-79
2023/02/13 13:33:29;;;;;;;9.15;6.88;;;14.60;65.20;;;;;;5120258;27;20663;-75
2023/02/13 13:36:20;;;;;;;10.13;7.63;;;14.60;66.70;;;;;;5113036;28;20047;-74
2023/02/13 13:39:04;;;;;;;11.73;7.28;;;14.60;66.40;;;;;;5094984;28;20083;-77
2023/02/13 13:42:03;;;;;;;10.57;6.90;;;14.60;66.10;;;;;;5113294;28;20063;-75
2023/02/13 13:44:54;;;;;;;12.25;6.82;;;14.70;65.60;;;;;;5095021;28;20077;-76
2023/02/13 13:47:43;;;;;;;8.40;6.47;;;14.70;65.40;;;;;;5112202;28;20047;-74
2023/02/13 13:50:23;;;;;;;8.70;6.50;;;14.80;65.80;;;;;;5110848;28;20079;-74
2023/02/13 13:53:13;;;;;;;8.93;6.57;;;14.90;65.10;;;;;;5112089;28;20442;-77
2023/02/13 13:56:09;;;;;;;10.90;6.80;;;14.90;64.70;;;;;;5112131;28;20059;-76
2023/02/13 13:58:40;;;;;;;8.63;6.28;;;15.00;65.60;;;;;;5112218;28;20047;-75
2023/02/13 14:01:38;;;;;;;9.45;5.72;;;15.10;64.70;;;;;;5094378;28;20424;-77
2023/02/13 14:04:37;;;;;;;8.85;5.57;;;15.10;64.30;;;;;;5058117;28;20048;-75
2023/02/13 14:07:02;;;;;;;10.20;5.10;;;15.10;64.00;;;;;;5105200;28;20035;-76
2023/02/13 14:09:37;;;;;;;7.75;5.07;;;15.10;64.20;;;;;;5112371;28;20054;-74
2023/02/13 14:12:24;;;;;;;9.75;4.75;;;15.10;64.40;;;;;;5094128;28;20047;-75
2023/02/13 14:14:52;;;;;;;7.80;3.63;;;15.20;64.40;;;;;;5111060;28;20040;-75
2023/02/13 14:17:45;;;;;;;8.18;3.58;;;15.30;64.30;;;;;;5111650;28;20047;-75
2023/02/13 14:20:33;;;;;;;9.95;4.70;;;15.30;64.00;;;;;;5074248;28;20044;-76
2023/02/13 14:23:12;;;;;;;12.18;5.47;;;15.40;63.70;;;;;;5091741;28;20059;-76
2023/02/13 14:25:38;;;;;;;11.27;5.38;;;15.40;63.30;;;;;;5110686;28;20071;-78
2023/02/13 14:28:05;;;;;;;8.18;4.55;;;15.50;63.30;;;;;;5111672;28;20164;-76
2023/02/13 14:30:37;;;;;;;9.65;5.00;;;15.60;63.20;;;;;;5093540;28;20035;-79
2023/02/13 14:33:20;;;;;;;9.35;4.15;;;15.60;63.50;;;;;;5110868;28;20058;-77
2023/02/13 14:36:02;;;;;;;6.93;4.47;;;15.70;63.70;;;;;;5112572;28;20105;-77
2023/02/13 14:38:28;;;;;;;9.00;4.72;;;15.70;62.90;;;;;;5111842;28;20082;-78
2023/02/13 14:40:54;;;;;;;7.75;3.75;;;15.80;63.00;;;;;;5111561;28;20122;-74
2023/02/13 14:43:25;;;;;;;6.93;3.72;;;15.80;63.10;;;;;;5100631;28;20184;-78
2023/02/13 14:46:23;;;;;;;9.85;4.00;;;15.80;63.00;;;;;;5096419;28;20063;-73
2023/02/13 14:48:56;;;;;;;5.47;4.07;;;15.80;63.00;;;;;;5098059;28;20062;-74
2023/02/13 14:51:36;;;;;;;7.25;3.70;;;15.60;63.20;;;;;;5098116;28;20050;-75
2023/02/13 14:54:16;;;;;;;9.60;4.35;;;15.30;64.50;;;;;;5096789;28;20050;-77
2023/02/13 14:56:45;;;;;;;11.63;4.45;;;15.20;64.80;;;;;;5097738;28;20082;-75
2023/02/13 14:59:16;;;;;;;10.00;4.05;;;15.30;64.50;;;;;;5097902;28;20427;-74
2023/02/13 15:02:14;;;;;;;10.30;4.22;;;15.30;64.30;;;;;;5097966;28;20393;-77
2023/02/13 15:04:58;;;;;;;6.78;4.13;;;15.40;64.10;;;;;;5096066;28;20490;-75
2023/02/13 15:07:48;;;;;;;6.78;3.20;;;15.40;63.90;;;;;;5096824;28;20105;-78
2023/02/13 15:10:35;;;;;;;4.93;3.28;;;15.40;63.80;;;;;;5096932;28;20044;-75
2023/02/13 15:13:02;;;;;;;5.15;3.75;;;15.40;63.60;;;;;;5097720;28;20079;-77
2023/02/13 15:15:34;;;;;;;6.68;3.80;;;15.40;63.60;;;;;;5097434;28;20044;-75
2023/02/13 15:18:10;;;;;;;6.53;3.60;;;15.40;63.50;;;;;;5079960;28;20048;-77
2023/02/13 15:20:40;;;;;;;10.82;4.35;;;15.40;63.40;;;;;;5077252;28;20048;-75
2023/02/13 15:23:08;;;;;;;7.35;3.80;;;15.40;63.40;;;;;;5058641;28;20064;-78
2023/02/13 15:25:38;;;;;;;5.80;3.63;;;15.40;63.40;;;;;;5076880;28;20206;-76
2023/02/13 15:28:07;;;;;;;4.65;3.28;;;15.40;63.30;;;;;;5078367;28;20048;-76
2023/02/13 15:30:35;;;;;;;7.28;3.15;;;15.40;63.30;;;;;;5067736;28;20049;-77
2023/02/13 15:33:20;;;;;;;7.88;3.13;;;15.40;63.30;;;;;;5072970;28;20132;-75
2023/02/13 15:36:00;;;;;;;8.20;3.70;;;15.40;63.30;;;;;;5057081;28;20083;-72
2023/02/13 15:38:35;;;;;;;7.00;3.00;;;15.30;64.10;;;;;;5059547;28;20033;-75
2023/02/13 15:41:22;;;;;;;4.30;3.20;;;15.40;63.70;;;;;;5076515;28;20098;-73
2023/02/13 15:43:58;;;;;;;4.72;3.10;;;15.30;63.30;;;;;;5076846;28;20048;-73
2023/02/13 15:46:33;;;;;;;8.43;3.97;;;15.30;63.70;;;;;;5076265;28;20520;-72
2023/02/13 15:49:17;;;;;;;9.55;5.13;;;15.30;63.80;;;;;;5075495;28;20036;-73
2023/02/13 15:51:43;;;;;;;;;;;15.30;63.50;;;;;;5059103;28;20466;-79
2023/02/13 15:54:27;;;;;;;12.73;8.80;;;15.30;63.30;;;;;;5075200;28;19920;-77
2023/02/13 15:56:57;;;;;;;19.10;10.50;;;15.30;63.20;;;;;;5070689;28;20519;-75
2023/02/13 15:59:25;;;;;;;19.65;10.73;;;15.30;63.40;;;;;;5056310;28;20045;-77
2023/02/13 16:01:51;;;;;;;22.23;9.68;;;15.30;63.60;;;;;;5066766;28;20047;-76
2023/02/13 16:04:19;;;;;;;21.77;10.10;;;15.30;63.70;;;;;;5075134;28;20052;-74
2023/02/13 16:06:46;;;;;;;18.80;9.68;;;15.30;64.50;;;;;;5075273;28;20067;-78
2023/02/13 16:09:30;;;;;;;21.90;9.48;;;15.30;64.70;;;;;;5075590;28;20098;-76
2023/02/13 16:11:58;;;;;;;;;;;15.30;65.50;;;;;;5076421;28;20040;-75
2023/02/13 16:14:27;;;;;;;19.65;8.13;;;15.30;65.30;;;;;;5076187;28;19916;-77
2023/02/13 16:16:58;;;;;;;15.43;7.88;;;15.30;65.00;;;;;;5075021;28;20343;-76
2023/02/13 16:19:35;;;;;;;19.92;7.20;;;15.40;65.00;;;;;;5075165;28;20084;-77
2023/02/13 16:22:13;;;;;;;16.88;6.63;;;15.60;65.40;;;;;;5076097;28;20040;-78
2023/02/13 16:24:38;;;;;;;17.58;5.65;;;15.70;65.80;;;;;;5076001;28;20513;-77
2023/02/13 16:27:13;;;;;;;15.82;5.43;;;15.80;65.90;;;;;;5076137;28;20136;-77
2023/02/13 16:29:48;;;;;;;16.20;5.35;;;15.90;66.10;;;;;;5065245;28;20071;-77
2023/02/13 16:32:31;;;;;;;10.18;4.60;;;16.00;66.00;;;;;;5085744;28;20082;-74
2023/02/13 16:35:15;;;;;;;10.88;5.28;;;16.00;66.20;;;;;;5105664;28;20039;-76
2023/02/13 16:37:56;;;;;;;21.02;5.65;;;16.10;66.40;;;;;;5079301;28;20074;-78
2023/02/13 16:40:38;;;;;;;10.13;4.65;;;16.10;66.40;;;;;;5075229;28;20447;-77
2023/02/13 16:43:39;;;;;;;9.95;4.72;;;16.10;66.50;;;;;;5095160;28;20335;-79
2023/02/13 16:46:14;;;;;;;9.23;4.28;;;16.10;66.70;;;;;;5092858;28;20429;-76
2023/02/13 16:48:42;;;;;;;14.05;4.28;;;16.10;66.80;;;;;;5076705;28;20051;-74
2023/02/13 16:51:09;;;;;;;14.30;4.15;;;16.10;66.70;;;;;;5085930;28;20090;-76
2023/02/13 16:53:39;;;;;;;14.20;5.25;;;16.10;66.80;;;;;;5107218;28;20354;-75
2023/02/13 16:56:10;;;;;;;9.48;4.13;;;16.00;66.90;;;;;;5087712;28;20467;-76
2023/02/13 16:58:36;;;;;;;14.52;4.63;;;16.00;67.00;;;;;;5093918;28;20464;-76
2023/02/13 17:01:03;;;;;;;11.43;3.88;;;16.00;67.20;;;;;;5095350;28;20040;-76
2023/02/13 17:03:32;;;;;;;17.85;4.90;;;16.00;67.30;;;;;;5077271;28;20056;-77
2023/02/13 17:06:02;;;;;;;16.33;4.50;;;16.00;67.30;;;;;;5077104;28;20043;-75
2023/02/13 17:08:30;;;;;;;19.92;4.78;;;16.00;67.40;;;;;;5095184;28;20083;-76
2023/02/13 17:11:06;;;;;;;15.65;4.20;;;16.00;67.40;;;;;;5089612;28;20484;-75
2023/02/13 17:13:33;;;;;;;10.80;3.70;;;16.00;67.50;;;;;;5085361;28;20048;-76
2023/02/13 17:15:59;;;;;;;14.40;4.60;;;16.00;67.30;;;;;;5085836;28;20044;-74
2023/02/13 17:18:25;;;;;;;9.57;3.75;;;15.90;67.10;;;;;;5083804;28;20094;-75
2023/02/13 17:20:52;;;;;;;13.32;3.90;;;15.90;67.10;;;;;;5088503;28;20375;-80
2023/02/13 17:23:23;;;;;;;23.38;5.55;;;15.90;67.00;;;;;;5083278;28;20044;-76
2023/02/13 17:25:52;;;;;;;17.33;4.57;;;15.90;67.10;;;;;;5087754;28;20454;-75
2023/02/13 17:28:29;;;;;;;13.48;4.13;;;15.90;67.10;;;;;;5067830;28;20048;-74
2023/02/13 17:30:57;;;;;;;20.10;5.18;;;15.90;67.00;;;;;;5085087;28;20348;-73
2023/02/13 17:33:25;;;;;;;9.38;3.60;;;15.90;67.10;;;;;;5083204;28;20056;-73
2023/02/13 17:35:51;;;;;;;12.77;4.85;;;15.80;66.60;;;;;;5086965;28;20055;-75
2023/02/13 17:38:17;;;;;;;9.85;4.32;;;15.70;67.00;;;;;;5085355;28;20056;-75
2023/02/13 17:40:44;;;;;;;13.60;4.75;;;15.70;67.30;;;;;;5083307;28;20052;-74
2023/02/13 17:43:14;;;;;;;11.00;4.43;;;15.70;67.40;;;;;;5084607;28;20051;-75
2023/02/13 17:45:40;;;;;;;9.30;5.03;;;15.70;67.50;;;;;;5070209;28;20374;-75
2023/02/13 17:48:07;;;;;;;9.30;4.47;;;15.70;67.30;;;;;;5068085;28;20102;-74
2023/02/13 17:50:33;;;;;;;7.85;3.83;;;15.70;67.20;;;;;;5084798;28;20123;-76
2023/02/13 17:53:06;;;;;;;10.90;3.97;;;15.70;67.10;;;;;;5066935;28;20466;-76
2023/02/13 17:55:33;;;;;;;10.50;4.30;;;15.70;67.00;;;;;;5066450;28;20058;-74
2023/02/13 17:58:00;;;;;;;10.63;4.22;;;15.70;67.00;;;;;;5087940;28;20044;-74
2023/02/13 18:00:30;;;;;;;10.30;4.80;;;15.70;67.00;;;;;;5084972;28;20122;-76
2023/02/13 18:02:58;;;;;;;8.02;4.32;;;15.60;67.00;;;;;;5084730;28;20044;-76
2023/02/13 18:05:24;;;;;;;10.38;4.22;;;15.60;67.00;;;;;;5085942;28;20362;-76
2023/02/13 18:07:49;;;;;;;7.15;4.32;;;15.60;67.00;;;;;;5084817;28;20052;-75
2023/02/13 18:10:23;;;;;;;8.18;4.78;;;15.60;67.00;;;;;;5083889;28;20044;-74
2023/02/13 18:12:51;;;;;;;8.85;4.57;;;15.50;66.90;;;;;;5064866;28;20340;-75
2023/02/13 18:15:17;;;;;;;6.15;4.70;;;15.50;67.10;;;;;;5061809;28;20083;-78
2023/02/13 18:40:15;;;;;;;23.02;15.32;;;14.80;63.90;;;;;;5336032;24;20062;-79
2023/02/13 18:42:49;;;;;;;30.35;15.75;;;14.90;63.40;;;;;;4826773;29;20058;-76
2023/02/13 18:45:15;;;;;;;21.65;15.13;;;14.90;63.30;;;;;;4828492;29;20065;-75
2023/02/13 18:47:40;;;;;;;19.90;14.25;;;14.90;63.20;;;;;;4828435;29;20050;-78
2023/02/13 18:50:07;;;;;;;22.65;14.52;;;14.90;63.30;;;;;;4827186;29;20046;-74
2023/02/13 18:52:33;;;;;;;31.33;15.48;;;15.00;64.20;;;;;;4827713;29;20055;-72
2023/02/13 18:54:59;;;;;;;25.38;14.00;;;15.00;64.40;;;;;;4828093;29;20086;-73
2023/02/13 18:57:25;;;;;;;26.83;14.55;;;15.10;64.90;;;;;;4821507;29;20367;-73
2023/02/13 18:59:51;;;;;;;20.67;13.77;;;15.10;66.10;;;;;;4810553;29;20050;-75
2023/02/13 19:02:16;;;;;;;20.55;13.43;;;15.10;66.10;;;;;;4810292;29;20082;-76
2023/02/13 19:04:42;;;;;;;19.50;12.82;;;15.10;66.40;;;;;;4810287;29;20065;-73
2023/02/13 19:07:08;;;;;;;18.70;12.00;;;15.10;66.00;;;;;;4819068;29;20058;-73
2023/02/13 19:09:38;;;;;;;21.90;12.50;;;15.10;66.50;;;;;;4812296;29;20046;-77
2023/02/13 19:12:05;;;;;;;19.80;12.85;;;15.20;66.00;;;;;;4826998;29;20462;-74
2023/02/13 19:14:31;;;;;;;20.00;12.93;;;15.10;66.10;;;;;;4828491;29;20065;-75
2023/02/13 19:16:56;;;;;;;18.92;12.48;;;15.10;66.20;;;;;;4797070;29;20050;-75
2023/02/13 19:19:23;;;;;;;18.50;11.48;;;15.10;66.10;;;;;;4828703;29;20050;-75
2023/02/13 19:21:48;;;;;;;18.08;12.05;;;15.10;66.10;;;;;;4828123;29;20058;-73
2023/02/13 19:24:14;;;;;;;16.00;11.68;;;15.10;66.10;;;;;;4812275;29;20435;-76
2023/02/13 19:26:40;;;;;;;15.75;12.07;;;15.10;66.10;;;;;;4826741;29;20069;-73
2023/02/13 19:29:06;;;;;;;18.83;11.13;;;15.10;66.10;;;;;;4811688;29;20129;-74
2023/02/13 19:31:33;;;;;;;16.42;10.68;;;15.10;66.00;;;;;;4827725;29;20209;-75
2023/02/13 19:33:59;;;;;;;15.30;10.10;;;15.10;66.00;;;;;;4828505;29;20480;-76
2023/02/13 19:36:27;;;;;;;11.80;10.32;;;15.10;66.00;;;;;;4811723;29;20466;-74
2023/02/13 19:38:58;;;;;;;14.18;9.77;;;15.00;66.00;;;;;;4827603;29;20133;-72
